Airport View

Enter AWOS ICAO identifier for current METAR.

ex. KFNL

KVPS 140315Z AUTO 02008KT 10SM -RA FEW007 BKN025 BKN100 12/11 A2976 RMK AO2 RAB00 SLP085 $

14 Dec 2019 03:27

Other Area AWOS: KDTS - KHRT - KEGI - KCEW

TAF AMD KVPS 140300Z 1403/1508 03006KT 8000 BR SCT015 BKN020 QNH2977INS TEMPO 1403/1404 8000 -TSRA SCT009 BKN015CB BECMG 1406/1407 31006KT 6000 BR FEW005 BKN007 BKN015 QNH2976INS BECMG 1408/1409 32012KT 4800 BR BKN005 BKN010 BKN020 QNH2979INS BECMG 1411/1412 32012KT 9999 NSW FEW015 SCT025 QNH2982INS BECMG 1416/1417 28009KT 9999 FEW035 QNH2986INS TX18/1420Z TN10/1412Z